DB4 weather

CLOSED Bonavista Airport
Little Catalina, Newfoundland and Labrador, Canada

Public forecast

Using degrees Celsius for public forecast. Weather courtesy of forecast.io.

METAR (pilot weather report)

Closest report is St. John's International Airport, 58.2 nm (107.9 km) SSE. Retrieved 2019/09/22 11:00 UTC (40 minutes ago):

CYYT 221100Z 25009KT 15SM FEW012 FEW160 OVC230 07/05 A3000 RMK SF1AC1CI7 SF TR SLP163

TAF (pilot weather forecast)

Closest forecast is St. John's International Airport, 58.2 nm (107.9 km) SSE. Retrieved 2019/09/22 06:42 UTC (5 hours ago):

TAF CYYT 220538Z 2206/2306 16010KT P6SM SKC BECMG 2210/2212 28010KT BECMG 2216/2218 25012G22KT FM222100 24015G25KT P6SM SKC BECMG 2223/2301 24020G30KT RMK NXT FCST BY 221200Z